Time;durP1;ratioP1;P1;durP2;ratioP2;P2;SDS_P1;SDS_P2;PMS_P1;PMS_P2;Temp;Humidity;BMP_temperature;BMP_pressure;BME280_temperature;BME280_humidity;BME280_pressure;Samples;Min_cycle;Max_cycle;Signal;HPM_P1;HPM_P2
2023/04/24 04:32:34;;;;;;;3.08;1.23;;;14.30;75.10;;;;;;5233331;23;20059;-75
2023/04/24 04:35:02;;;;;;;1.70;0.95;;;14.40;75.10;;;;;;4976877;28;20043;-75
2023/04/24 04:37:33;;;;;;;6.00;1.00;;;14.50;75.10;;;;;;4976797;28;20472;-74
2023/04/24 04:39:59;;;;;;;2.50;0.82;;;14.60;75.10;;;;;;4976868;28;20491;-73
2023/04/24 04:42:26;;;;;;;4.18;0.85;;;14.80;75.00;;;;;;4960514;28;20408;-73
2023/04/24 04:44:53;;;;;;;6.65;1.13;;;14.90;75.00;;;;;;4976740;28;20061;-76
2023/04/24 04:47:21;;;;;;;6.78;1.10;;;15.00;75.30;;;;;;4983137;28;20043;-71
2023/04/24 04:49:47;;;;;;;6.35;0.85;;;15.10;75.20;;;;;;4977924;28;20043;-75
2023/04/24 04:52:13;;;;;;;5.07;1.13;;;15.10;75.10;;;;;;4945592;28;20130;-73
2023/04/24 04:54:39;;;;;;;6.72;1.30;;;15.20;75.20;;;;;;4976882;28;20121;-76
2023/04/24 04:57:05;;;;;;;12.35;1.88;;;15.20;75.40;;;;;;4959700;28;20055;-75
2023/04/24 04:59:31;;;;;;;12.18;1.58;;;15.30;75.70;;;;;;4978736;28;20113;-74
2023/04/24 05:01:57;;;;;;;16.52;2.05;;;15.30;76.00;;;;;;4976343;28;20164;-74
2023/04/24 05:04:23;;;;;;;24.65;3.38;;;15.30;76.10;;;;;;4972450;28;20050;-75
2023/04/24 05:06:50;;;;;;;16.25;3.03;;;15.40;76.30;;;;;;4976756;28;20054;-73
2023/04/24 05:09:16;;;;;;;11.27;2.80;;;15.30;76.60;;;;;;4959293;28;20055;-75
2023/04/24 05:11:42;;;;;;;23.98;2.75;;;15.40;76.90;;;;;;4978420;28;20541;-75
2023/04/24 05:14:07;;;;;;;14.40;2.83;;;15.40;77.10;;;;;;4976776;28;20194;-77
2023/04/24 05:16:33;;;;;;;19.60;3.58;;;15.40;77.20;;;;;;4977127;28;20066;-77
2023/04/24 05:18:59;;;;;;;23.17;3.60;;;15.40;77.30;;;;;;4976863;28;20042;-73
2023/04/24 05:21:25;;;;;;;19.23;2.97;;;15.40;77.60;;;;;;4983172;28;20453;-75
2023/04/24 05:23:50;;;;;;;22.02;3.25;;;15.50;77.70;;;;;;4980677;28;20089;-75
2023/04/24 05:26:17;;;;;;;21.60;3.33;;;15.50;77.70;;;;;;4962373;28;20457;-75
2023/04/24 05:28:43;;;;;;;24.20;3.80;;;15.50;77.80;;;;;;4976159;28;20457;-75
2023/04/24 05:31:08;;;;;;;20.52;3.47;;;15.50;78.10;;;;;;4952788;28;20247;-77
2023/04/24 05:33:34;;;;;;;34.20;4.75;;;15.60;78.20;;;;;;4975641;28;20117;-77
2023/04/24 05:36:00;;;;;;;27.10;4.70;;;15.60;78.30;;;;;;4969981;28;20047;-73
2023/04/24 05:38:26;;;;;;;24.02;3.47;;;15.60;77.80;;;;;;4970490;28;20488;-75
2023/04/24 05:40:51;;;;;;;26.70;3.83;;;15.60;78.00;;;;;;4976137;28;20039;-76
2023/04/24 05:43:17;;;;;;;28.95;3.88;;;15.60;78.40;;;;;;4975809;28;20049;-73
2023/04/24 05:45:43;;;;;;;27.95;4.35;;;15.60;78.30;;;;;;4975607;28;20130;-77
2023/04/24 05:48:09;;;;;;;23.25;3.72;;;15.70;78.20;;;;;;4976069;28;20097;-74
2023/04/24 05:50:34;;;;;;;24.48;4.18;;;15.70;78.20;;;;;;4978575;28;20047;-74
2023/04/24 05:53:02;;;;;;;25.05;3.88;;;15.80;78.10;;;;;;4979967;28;20516;-76
2023/04/24 05:55:28;;;;;;;36.25;4.35;;;15.90;78.10;;;;;;4979379;28;20058;-77
2023/04/24 05:57:53;;;;;;;32.50;3.92;;;16.00;77.90;;;;;;4980066;28;20109;-76
2023/04/24 06:00:20;;;;;;;36.63;5.65;;;16.00;75.80;;;;;;4963494;28;20446;-76
2023/04/24 06:02:46;;;;;;;33.25;5.03;;;16.00;76.50;;;;;;4980126;28;20089;-78
2023/04/24 06:05:12;;;;;;;39.15;4.45;;;16.10;77.00;;;;;;4979876;28;20373;-75
2023/04/24 06:07:38;;;;;;;45.72;5.35;;;16.20;77.30;;;;;;4979654;28;20054;-75
2023/04/24 06:10:04;;;;;;;36.33;4.53;;;16.20;77.20;;;;;;4979654;28;20090;-80
2023/04/24 06:12:31;;;;;;;32.90;4.63;;;16.30;77.20;;;;;;4979554;28;20385;-71
2023/04/24 06:14:56;;;;;;;24.92;3.25;;;16.30;77.00;;;;;;4962246;28;20062;-75
2023/04/24 06:17:22;;;;;;;21.05;2.63;;;16.30;76.40;;;;;;4973407;28;20047;-75
2023/04/24 06:19:48;;;;;;;21.38;3.35;;;16.40;75.50;;;;;;4969925;28;20077;-74
2023/04/24 06:22:13;;;;;;;21.95;2.53;;;16.40;75.50;;;;;;4979375;28;20047;-76
2023/04/24 06:24:48;;;;;;;17.38;2.28;;;16.40;75.30;;;;;;4970803;28;20046;-77
2023/04/24 06:27:14;;;;;;;22.60;2.20;;;16.30;72.20;;;;;;4969346;28;20061;-75
2023/04/24 06:29:40;;;;;;;19.05;2.40;;;16.20;71.00;;;;;;4974084;28;20051;-76
2023/04/24 06:32:06;;;;;;;16.52;2.65;;;16.20;73.20;;;;;;4958278;29;20126;-74
2023/04/24 06:34:33;;;;;;;19.13;2.53;;;16.10;73.90;;;;;;4964784;28;20054;-74
2023/04/24 06:36:59;;;;;;;13.13;2.55;;;16.20;74.30;;;;;;4957441;29;20058;-76
2023/04/24 06:39:25;;;;;;;19.58;3.08;;;16.20;74.50;;;;;;4966863;28;20058;-75
2023/04/24 06:41:51;;;;;;;13.32;1.90;;;16.20;74.60;;;;;;4975367;28;20449;-75
2023/04/24 06:44:17;;;;;;;15.32;3.00;;;16.10;74.60;;;;;;4962047;28;20042;-75
2023/04/24 06:46:43;;;;;;;23.65;3.53;;;16.10;74.70;;;;;;4979320;28;20051;-74
2023/04/24 06:49:09;;;;;;;17.40;3.10;;;16.10;74.70;;;;;;4979351;28;20476;-73
2023/04/24 06:51:34;;;;;;;20.55;4.03;;;16.10;74.70;;;;;;4979082;28;20042;-74
2023/04/24 06:54:01;;;;;;;18.25;3.53;;;16.10;74.50;;;;;;4979053;28;20043;-74
2023/04/24 06:56:28;;;;;;;17.08;4.10;;;16.10;74.30;;;;;;4962033;28;20060;-75
2023/04/24 06:58:54;;;;;;;12.02;3.47;;;16.10;74.20;;;;;;4979191;28;20446;-75
2023/04/24 07:01:20;;;;;;;17.15;4.70;;;16.10;74.10;;;;;;4978331;28;20074;-75
2023/04/24 07:03:45;;;;;;;9.65;4.00;;;16.10;73.90;;;;;;4978933;28;20047;-73
2023/04/24 07:06:12;;;;;;;11.75;4.72;;;16.10;73.70;;;;;;4972189;28;20346;-73
2023/04/24 07:08:38;;;;;;;20.00;4.30;;;16.10;73.30;;;;;;4961667;28;20046;-75
2023/04/24 07:11:04;;;;;;;11.60;3.53;;;16.00;72.10;;;;;;4978480;28;20125;-73
2023/04/24 07:13:29;;;;;;;14.38;3.90;;;15.90;71.90;;;;;;4978799;28;20500;-73
2023/04/24 07:15:56;;;;;;;9.40;3.78;;;15.90;71.70;;;;;;4979527;28;20335;-74
2023/04/24 07:18:22;;;;;;;15.45;4.55;;;15.80;71.80;;;;;;4975666;28;20047;-73
2023/04/24 07:20:49;;;;;;;14.20;4.53;;;15.80;71.70;;;;;;4961532;28;20509;-75
2023/04/24 07:23:17;;;;;;;20.67;4.90;;;15.80;71.70;;;;;;4951732;29;20082;-73
2023/04/24 07:25:43;;;;;;;33.90;5.55;;;15.70;71.60;;;;;;4959347;29;20058;-73
2023/04/24 07:28:09;;;;;;;14.48;4.70;;;15.70;71.70;;;;;;4959063;28;20051;-73
2023/04/24 07:30:35;;;;;;;18.05;4.47;;;15.70;72.20;;;;;;4958433;28;20128;-73
2023/04/24 07:33:01;;;;;;;17.80;4.70;;;15.70;72.40;;;;;;4977495;28;20350;-72
2023/04/24 07:35:27;;;;;;;18.08;4.38;;;15.70;72.30;;;;;;4961173;28;20054;-74
2023/04/24 07:37:53;;;;;;;21.98;4.50;;;15.70;72.60;;;;;;4965787;28;20039;-76
2023/04/24 07:40:20;;;;;;;15.77;4.55;;;15.70;72.90;;;;;;4952554;28;20042;-72
2023/04/24 07:42:48;;;;;;;21.92;4.95;;;15.70;73.00;;;;;;4975479;28;20117;-75
2023/04/24 07:45:14;;;;;;;20.23;3.75;;;15.70;73.20;;;;;;4959062;29;20054;-75
2023/04/24 07:47:43;;;;;;;16.45;4.00;;;15.80;73.40;;;;;;4966376;28;20054;-72
2023/04/24 07:50:10;;;;;;;24.73;5.45;;;15.80;73.40;;;;;;4969538;28;20043;-72
2023/04/24 07:52:35;;;;;;;22.00;4.78;;;15.80;73.50;;;;;;4937331;29;20134;-74
2023/04/24 07:55:02;;;;;;;17.58;4.15;;;15.80;73.50;;;;;;4967423;28;20126;-76
2023/04/24 07:57:28;;;;;;;27.20;4.85;;;15.80;73.60;;;;;;4977951;28;20521;-74
2023/04/24 07:59:54;;;;;;;19.98;4.80;;;15.90;73.70;;;;;;4977795;28;20058;-73
2023/04/24 08:02:26;;;;;;;21.25;3.97;;;15.90;73.70;;;;;;4977413;28;20148;-75
2023/04/24 08:04:55;;;;;;;30.33;4.90;;;15.90;73.70;;;;;;4977539;28;20050;-73
2023/04/24 08:07:21;;;;;;;24.00;4.65;;;16.00;73.90;;;;;;4971814;28;20044;-74
2023/04/24 08:09:47;;;;;;;26.75;5.20;;;16.00;74.00;;;;;;4968900;28;20035;-76
2023/04/24 08:12:13;;;;;;;22.00;4.47;;;16.00;74.00;;;;;;4977099;28;20047;-73
2023/04/24 08:14:39;;;;;;;22.80;4.25;;;16.00;74.00;;;;;;4960423;28;20523;-74
2023/04/24 08:17:04;;;;;;;22.77;4.35;;;16.10;73.60;;;;;;4978102;28;20334;-74
2023/04/24 08:19:30;;;;;;;21.98;3.60;;;16.10;73.60;;;;;;4977104;28;20365;-74
2023/04/24 08:21:56;;;;;;;18.30;3.53;;;16.10;73.60;;;;;;4975796;28;20046;-75
2023/04/24 08:24:22;;;;;;;18.25;3.92;;;16.10;73.40;;;;;;4975727;28;20050;-74
2023/04/24 08:26:52;;;;;;;19.70;5.05;;;16.10;73.40;;;;;;4977613;28;20051;-76
2023/04/24 08:29:17;;;;;;;19.00;3.80;;;16.10;73.60;;;;;;4977324;28;20408;-75
2023/04/24 08:31:43;;;;;;;25.65;4.30;;;16.10;73.70;;;;;;4960298;28;20141;-74
2023/04/24 08:34:10;;;;;;;26.48;5.13;;;16.10;73.80;;;;;;4977472;28;20477;-73
2023/04/24 08:36:36;;;;;;;25.40;4.68;;;16.20;73.90;;;;;;4977321;28;20062;-73
2023/04/24 08:39:02;;;;;;;26.27;4.43;;;16.20;74.00;;;;;;4976020;28;20055;-75
2023/04/24 08:41:28;;;;;;;29.58;5.15;;;16.20;74.00;;;;;;4976734;28;20051;-75
2023/04/24 08:43:54;;;;;;;30.67;5.07;;;16.20;74.10;;;;;;4960881;28;20086;-73
2023/04/24 08:46:21;;;;;;;28.77;5.15;;;16.20;74.20;;;;;;4975536;28;20066;-73
2023/04/24 08:48:49;;;;;;;28.35;5.32;;;16.20;74.10;;;;;;4977206;28;20389;-71
2023/04/24 08:51:16;;;;;;;20.67;5.03;;;16.20;73.70;;;;;;4976775;28;20417;-73
2023/04/24 08:53:43;;;;;;;26.88;4.07;;;16.30;73.50;;;;;;4959961;28;20086;-74
2023/04/24 08:56:11;;;;;;;25.27;3.80;;;16.20;73.20;;;;;;4977080;28;20038;-74
2023/04/24 08:58:37;;;;;;;21.35;4.47;;;16.20;73.00;;;;;;4976639;28;20058;-74
2023/04/24 09:01:05;;;;;;;20.52;4.30;;;16.20;72.90;;;;;;4976002;28;20118;-73
2023/04/24 09:03:32;;;;;;;24.35;4.18;;;16.20;72.70;;;;;;4959485;28;20046;-74
2023/04/24 09:06:00;;;;;;;25.05;4.10;;;16.20;72.60;;;;;;4976762;28;20055;-72
2023/04/24 09:08:27;;;;;;;15.25;3.47;;;16.20;72.50;;;;;;4976876;28;20050;-74
2023/04/24 09:10:53;;;;;;;20.55;3.35;;;16.20;72.50;;;;;;4959279;28;20474;-72
2023/04/24 09:13:22;;;;;;;12.48;3.05;;;16.20;72.40;;;;;;4976481;28;20082;-75
2023/04/24 09:15:48;;;;;;;19.48;3.70;;;16.20;72.40;;;;;;4976497;28;20122;-73
2023/04/24 09:18:14;;;;;;;13.95;3.53;;;16.20;72.30;;;;;;4959756;28;20145;-75
2023/04/24 09:21:00;;;;;;;12.75;3.97;;;16.20;72.30;;;;;;4959388;28;20043;-74
2023/04/24 09:23:30;;;;;;;17.63;3.40;;;16.20;72.20;;;;;;4976027;28;20053;-75
2023/04/24 09:25:57;;;;;;;13.10;2.65;;;16.20;72.20;;;;;;4976456;28;20050;-72
2023/04/24 09:28:34;;;;;;;12.35;3.15;;;16.20;72.20;;;;;;4960207;28;20129;-74
2023/04/24 09:31:11;;;;;;;11.55;2.47;;;16.20;72.20;;;;;;4976245;28;20051;-75
2023/04/24 09:33:37;;;;;;;14.73;3.70;;;16.30;72.20;;;;;;4977137;28;20063;-74
2023/04/24 09:36:03;;;;;;;13.48;3.38;;;16.30;72.20;;;;;;4976304;28;20350;-73
2023/04/24 09:38:35;;;;;;;12.32;2.33;;;16.20;72.10;;;;;;4959637;28;20134;-75
2023/04/24 09:41:03;;;;;;;12.75;2.83;;;16.20;72.00;;;;;;4976151;28;20043;-73
2023/04/24 09:43:29;;;;;;;9.77;2.40;;;16.30;72.00;;;;;;4976590;28;20191;-75
2023/04/24 09:45:57;;;;;;;10.00;2.38;;;16.30;71.90;;;;;;4959714;28;20134;-74
2023/04/24 09:48:34;;;;;;;7.25;2.33;;;16.20;71.80;;;;;;4959415;28;20059;-72
2023/04/24 09:51:01;;;;;;;14.75;3.40;;;16.30;71.80;;;;;;4943179;28;20051;-72
2023/04/24 09:53:28;;;;;;;9.57;2.83;;;16.30;71.80;;;;;;4976504;28;20129;-75
2023/04/24 09:55:53;;;;;;;9.75;2.35;;;16.30;71.70;;;;;;4976178;28;20100;-74
2023/04/24 09:58:29;;;;;;;10.27;2.50;;;16.30;71.60;;;;;;4976751;28;20505;-73
2023/04/24 10:00:56;;;;;;;8.52;2.67;;;16.20;71.50;;;;;;4975830;28;20365;-75
2023/04/24 10:03:28;;;;;;;7.10;2.60;;;16.20;71.50;;;;;;4959171;28;20065;-74
2023/04/24 10:05:54;;;;;;;8.68;2.38;;;16.20;71.50;;;;;;4959686;28;20050;-74
2023/04/24 10:08:21;;;;;;;8.48;2.60;;;16.20;71.50;;;;;;4959929;28;20394;-74
2023/04/24 10:10:46;;;;;;;7.43;2.45;;;16.20;71.50;;;;;;4958625;28;20454;-74
2023/04/24 10:13:17;;;;;;;6.78;2.55;;;16.20;71.50;;;;;;4975771;28;20054;-73
2023/04/24 10:15:43;;;;;;;7.68;2.17;;;16.20;71.50;;;;;;4976030;28;20058;-74
2023/04/24 10:18:10;;;;;;;10.40;2.30;;;16.20;71.50;;;;;;4959253;28;20446;-73
2023/04/24 10:20:38;;;;;;;7.95;2.28;;;16.20;71.40;;;;;;4958160;28;20070;-73
2023/04/24 10:23:05;;;;;;;8.98;2.35;;;16.20;71.40;;;;;;4952729;28;20058;-75
2023/04/24 10:25:32;;;;;;;9.13;2.25;;;16.20;71.40;;;;;;4961803;28;20465;-75
2023/04/24 10:27:59;;;;;;;5.50;2.30;;;16.20;71.40;;;;;;4968894;28;20068;-74
2023/04/24 10:30:30;;;;;;;8.82;2.47;;;16.20;71.30;;;;;;4969339;28;20469;-75
2023/04/24 10:32:56;;;;;;;6.10;2.13;;;16.20;71.10;;;;;;4975651;28;20096;-75
2023/04/24 10:35:25;;;;;;;9.93;2.20;;;16.10;70.90;;;;;;4976585;28;20050;-73
2023/04/24 10:38:10;;;;;;;9.90;2.58;;;16.10;70.60;;;;;;4962372;28;20050;-77
2023/04/24 10:40:36;;;;;;;10.15;2.78;;;16.20;70.20;;;;;;4979638;28;20051;-74
2023/04/24 10:43:05;;;;;;;8.40;2.38;;;16.10;70.30;;;;;;4979081;28;20043;-75
2023/04/24 10:45:31;;;;;;;10.88;2.03;;;16.10;70.10;;;;;;4978836;28;20055;-77
2023/04/24 10:48:07;;;;;;;32.05;5.45;;;16.10;70.20;;;;;;4979308;28;20158;-76
2023/04/24 10:50:47;;;;;;;47.28;6.82;;;16.10;70.30;;;;;;4979612;28;20113;-75
2023/04/24 10:53:19;;;;;;;39.20;7.03;;;16.10;70.90;;;;;;4979148;28;20051;-77
2023/04/24 10:55:50;;;;;;;41.15;7.55;;;16.00;70.10;;;;;;4972842;28;20038;-74
2023/04/24 10:58:21;;;;;;;70.05;9.13;;;16.00;70.60;;;;;;4966046;28;20125;-72
2023/04/24 11:00:56;;;;;;;55.70;8.15;;;16.10;71.00;;;;;;4978154;28;20122;-72
2023/04/24 11:03:34;;;;;;;53.25;8.13;;;16.10;71.50;;;;;;4978724;28;20357;-73
2023/04/24 11:06:07;;;;;;;60.22;10.00;;;16.10;71.80;;;;;;4978595;28;20449;-72
2023/04/24 11:08:36;;;;;;;;;;;16.10;72.00;;;;;;4979128;28;20054;-72
2023/04/24 11:11:16;;;;;;;59.03;8.40;;;16.00;71.90;;;;;;4978552;28;19933;-73
2023/04/24 11:13:54;;;;;;;56.05;7.32;;;16.00;72.30;;;;;;4978706;28;20043;-72
2023/04/24 11:16:21;;;;;;;57.08;8.73;;;16.00;72.50;;;;;;4978934;28;20062;-73
2023/04/24 11:18:54;;;;;;;58.97;8.68;;;16.10;72.50;;;;;;4978348;28;20070;-74
2023/04/24 11:21:22;;;;;;;62.83;8.45;;;16.10;72.60;;;;;;4979001;28;20042;-71
2023/04/24 11:23:47;;;;;;;58.97;8.98;;;16.10;72.80;;;;;;4978611;28;20050;-73
2023/04/24 11:26:19;;;;;;;48.00;7.20;;;16.10;72.90;;;;;;4978468;28;20053;-75
2023/04/24 11:28:49;;;;;;;57.90;8.25;;;16.20;73.20;;;;;;4978360;28;20035;-72
2023/04/24 11:31:34;;;;;;;48.90;7.05;;;16.20;73.30;;;;;;4978416;28;20058;-75
2023/04/24 11:34:07;;;;;;;50.25;7.93;;;16.20;73.30;;;;;;4978450;28;20063;-73
2023/04/24 11:36:34;;;;;;;41.17;8.07;;;16.20;73.40;;;;;;4978436;28;20046;-77
2023/04/24 11:39:00;;;;;;;44.95;7.97;;;16.30;73.60;;;;;;4977651;28;20051;-74
2023/04/24 11:41:27;;;;;;;39.75;6.43;;;16.30;73.70;;;;;;4961705;28;20066;-75
2023/04/24 11:43:55;;;;;;;61.75;8.20;;;16.30;73.80;;;;;;4978228;28;20362;-73
2023/04/24 11:46:21;;;;;;;43.03;7.30;;;16.30;73.90;;;;;;4977916;28;20512;-74
2023/04/24 11:48:47;;;;;;;42.38;6.05;;;16.30;73.90;;;;;;4977145;28;20046;-75
2023/04/24 11:51:16;;;;;;;32.40;6.15;;;16.30;73.80;;;;;;4977646;28;20062;-76
2023/04/24 11:53:41;;;;;;;44.00;5.97;;;16.30;73.70;;;;;;4961050;28;20051;-73
2023/04/24 11:56:09;;;;;;;32.58;5.43;;;16.30;73.60;;;;;;4977806;28;20058;-76
2023/04/24 11:58:39;;;;;;;37.75;6.47;;;16.40;73.50;;;;;;4961274;28;20353;-74
2023/04/24 12:01:05;;;;;;;37.95;5.47;;;16.40;73.40;;;;;;4978131;28;20054;-74
2023/04/24 12:03:31;;;;;;;26.77;4.65;;;16.40;73.30;;;;;;4978096;28;20058;-73
2023/04/24 12:06:07;;;;;;;28.17;5.18;;;16.40;73.30;;;;;;4977914;28;20047;-75
2023/04/24 12:08:34;;;;;;;30.23;5.70;;;16.40;73.10;;;;;;4977853;28;20351;-73
2023/04/24 12:11:04;;;;;;;30.23;5.82;;;16.40;73.00;;;;;;4977514;28;20424;-74
2023/04/24 12:13:30;;;;;;;27.50;4.63;;;16.40;73.00;;;;;;4960826;28;20460;-75
2023/04/24 12:16:01;;;;;;;34.33;5.97;;;16.40;73.10;;;;;;4961116;28;20485;-76
2023/04/24 12:18:27;;;;;;;30.55;5.22;;;16.40;73.00;;;;;;4978402;28;20050;-74
2023/04/24 12:20:53;;;;;;;25.67;4.60;;;16.30;73.00;;;;;;4977577;28;20077;-73
2023/04/24 12:23:36;;;;;;;22.55;4.20;;;16.30;73.10;;;;;;4977951;28;20142;-73
2023/04/24 12:26:05;;;;;;;20.67;4.27;;;16.30;73.00;;;;;;4977337;28;20065;-74
2023/04/24 12:28:38;;;;;;;19.80;3.92;;;16.30;73.20;;;;;;4977876;28;20271;-75
2023/04/24 12:31:04;;;;;;;15.57;4.57;;;16.30;73.00;;;;;;4977310;28;20099;-73
2023/04/24 12:33:34;;;;;;;20.77;4.32;;;16.40;72.90;;;;;;4960376;28;20051;-76
2023/04/24 12:36:00;;;;;;;19.75;3.42;;;16.30;72.80;;;;;;4960406;28;20090;-77
2023/04/24 12:38:27;;;;;;;25.52;4.00;;;16.40;72.90;;;;;;4977212;28;20093;-76
2023/04/24 12:41:04;;;;;;;21.85;3.08;;;16.40;72.30;;;;;;4954015;28;20059;-74
2023/04/24 12:43:29;;;;;;;39.28;5.28;;;16.40;71.10;;;;;;4974359;28;20474;-74
2023/04/24 12:45:55;;;;;;;28.70;4.00;;;16.30;70.40;;;;;;4977089;28;20089;-76
2023/04/24 12:48:22;;;;;;;23.10;3.60;;;16.30;69.80;;;;;;4970213;28;20434;-74
2023/04/24 12:50:48;;;;;;;28.27;3.97;;;16.30;69.70;;;;;;4976054;28;20113;-76
2023/04/24 12:53:14;;;;;;;26.63;4.63;;;16.30;69.70;;;;;;4976720;28;20050;-75
2023/04/24 12:55:40;;;;;;;34.13;4.00;;;16.30;69.70;;;;;;4976640;28;20039;-76
2023/04/24 12:58:06;;;;;;;24.42;3.60;;;16.30;69.80;;;;;;4976381;28;20112;-76
2023/04/24 13:00:32;;;;;;;24.45;3.05;;;16.30;69.90;;;;;;4977503;28;20059;-76
2023/04/24 13:02:58;;;;;;;19.55;2.92;;;16.40;70.10;;;;;;4974579;28;20055;-74
2023/04/24 13:05:24;;;;;;;28.15;3.08;;;16.40;70.20;;;;;;4965639;28;20130;-77
2023/04/24 13:07:50;;;;;;;19.70;3.45;;;16.40;70.30;;;;;;4959924;28;20129;-75
2023/04/24 13:10:16;;;;;;;24.38;3.70;;;16.40;70.40;;;;;;4976225;28;20118;-74
2023/04/24 13:12:45;;;;;;;31.20;5.18;;;16.30;70.50;;;;;;4975990;28;20061;-74
2023/04/24 13:15:10;;;;;;;23.25;3.72;;;16.40;70.60;;;;;;4976953;28;20121;-77
2023/04/24 13:17:36;;;;;;;18.98;2.80;;;16.40;70.80;;;;;;4976510;28;20370;-77
2023/04/24 13:20:03;;;;;;;18.75;2.92;;;16.30;70.80;;;;;;4976332;28;20047;-77
2023/04/24 13:22:28;;;;;;;25.80;3.00;;;16.40;70.70;;;;;;4943487;28;20046;-76
2023/04/24 13:24:54;;;;;;;26.77;3.67;;;16.30;70.80;;;;;;4959627;28;20058;-75
2023/04/24 13:27:20;;;;;;;23.05;4.07;;;16.30;70.90;;;;;;4976716;28;20057;-75
2023/04/24 13:29:46;;;;;;;23.67;3.33;;;16.30;71.10;;;;;;4959782;28;20051;-74
2023/04/24 13:32:12;;;;;;;28.20;4.05;;;16.30;71.30;;;;;;4976105;28;20124;-74
2023/04/24 13:34:37;;;;;;;27.77;4.38;;;16.30;71.50;;;;;;4975953;28;20150;-73
2023/04/24 13:37:04;;;;;;;30.83;5.03;;;16.30;71.80;;;;;;4976359;28;20062;-75
2023/04/24 13:39:30;;;;;;;27.50;4.50;;;16.30;72.40;;;;;;4957427;28;20057;-77
2023/04/24 13:41:56;;;;;;;25.83;3.53;;;16.30;72.70;;;;;;4975880;28;20363;-74
2023/04/24 13:44:23;;;;;;;30.20;3.50;;;16.30;72.80;;;;;;4943310;28;20081;-76
2023/04/24 13:46:52;;;;;;;27.83;4.70;;;16.30;72.90;;;;;;4976026;28;20039;-76
2023/04/24 13:49:18;;;;;;;25.13;3.42;;;16.40;72.90;;;;;;4958879;28;20050;-76
2023/04/24 13:51:45;;;;;;;24.95;3.42;;;16.30;72.80;;;;;;4959143;28;20057;-75
2023/04/24 13:54:11;;;;;;;30.65;4.05;;;16.30;72.70;;;;;;4970341;28;20482;-74
2023/04/24 13:56:38;;;;;;;16.70;4.15;;;16.30;72.70;;;;;;4975943;28;20062;-75
2023/04/24 13:59:04;;;;;;;20.77;2.55;;;16.30;72.60;;;;;;4976111;28;20113;-75
2023/04/24 14:01:30;;;;;;;21.30;3.15;;;16.30;72.60;;;;;;4975835;28;20057;-73
2023/04/24 14:03:56;;;;;;;20.80;3.38;;;16.40;72.50;;;;;;4959018;28;20065;-71
2023/04/24 14:06:22;;;;;;;19.75;2.80;;;16.30;72.50;;;;;;4975970;28;20038;-75
2023/04/24 14:08:49;;;;;;;21.38;3.05;;;16.40;72.40;;;;;;4976208;28;20125;-74
2023/04/24 14:11:15;;;;;;;16.05;3.10;;;16.30;72.40;;;;;;4960669;28;20054;-71
2023/04/24 14:13:45;;;;;;;16.90;3.25;;;16.30;72.30;;;;;;4979569;28;20046;-71
2023/04/24 14:16:11;;;;;;;19.58;5.13;;;16.30;72.20;;;;;;4980182;28;20047;-72
2023/04/24 14:18:37;;;;;;;25.05;6.32;;;16.40;72.50;;;;;;4980439;28;20042;-79
2023/04/24 14:21:06;;;;;;;19.40;5.57;;;16.30;72.60;;;;;;4962936;28;20504;-75
2023/04/24 14:23:32;;;;;;;15.23;4.63;;;16.30;72.60;;;;;;4979943;28;20055;-75
2023/04/24 14:25:58;;;;;;;12.55;4.35;;;16.40;72.30;;;;;;4979451;28;20038;-76
2023/04/24 14:28:25;;;;;;;16.58;4.63;;;16.40;71.70;;;;;;4962666;28;20054;-78
2023/04/24 14:30:51;;;;;;;16.60;4.53;;;16.40;71.30;;;;;;4962828;28;20043;-78
2023/04/24 14:33:18;;;;;;;19.77;4.63;;;16.30;71.10;;;;;;4979508;28;20433;-77
2023/04/24 14:35:44;;;;;;;19.08;4.47;;;16.30;71.60;;;;;;4962566;28;20367;-80
2023/04/24 14:38:10;;;;;;;16.85;4.20;;;16.40;72.90;;;;;;4962188;28;20054;-80
2023/04/24 14:40:37;;;;;;;17.00;4.13;;;16.40;73.00;;;;;;4979542;28;20039;-78
2023/04/24 14:43:03;;;;;;;12.25;3.72;;;16.40;73.30;;;;;;4979132;28;20357;-77
2023/04/24 14:45:29;;;;;;;10.07;3.10;;;16.40;74.00;;;;;;4961446;28;20433;-74
2023/04/24 14:47:55;;;;;;;14.25;3.83;;;16.40;72.30;;;;;;4979182;28;20038;-75
2023/04/24 14:50:21;;;;;;;9.52;3.00;;;16.40;71.30;;;;;;4959711;28;20126;-76
2023/04/24 14:52:47;;;;;;;11.52;3.33;;;16.30;71.40;;;;;;4978333;28;20469;-76
2023/04/24 14:55:14;;;;;;;10.55;2.75;;;16.30;72.20;;;;;;4977808;28;20043;-76
2023/04/24 14:57:40;;;;;;;11.35;3.00;;;16.30;72.60;;;;;;4978737;28;20449;-76
2023/04/24 15:00:08;;;;;;;13.50;3.47;;;16.30;72.90;;;;;;4978481;28;20062;-81
2023/04/24 15:02:36;;;;;;;17.08;3.15;;;16.30;72.90;;;;;;4961835;28;20050;-74
2023/04/24 15:05:02;;;;;;;15.43;3.55;;;16.30;72.90;;;;;;4978619;28;20043;-80
2023/04/24 15:07:29;;;;;;;16.65;3.33;;;16.30;73.20;;;;;;4974352;28;20078;-79
2023/04/24 15:09:56;;;;;;;17.20;3.28;;;16.30;72.70;;;;;;4961975;28;20127;-75
2023/04/24 15:12:22;;;;;;;19.90;4.03;;;16.30;71.60;;;;;;4960907;28;20043;-77
2023/04/24 15:14:47;;;;;;;12.70;3.10;;;16.20;72.00;;;;;;4978513;28;20073;-75
2023/04/24 15:17:13;;;;;;;9.73;2.88;;;16.20;72.70;;;;;;4978965;28;20059;-74
2023/04/24 15:19:39;;;;;;;10.63;2.88;;;16.20;73.00;;;;;;4978585;28;20433;-78
2023/04/24 15:22:04;;;;;;;14.88;3.00;;;16.30;73.30;;;;;;4978459;28;20050;-76
2023/04/24 15:24:30;;;;;;;11.40;2.83;;;16.30;73.40;;;;;;4978707;28;20046;-76
2023/04/24 15:26:57;;;;;;;14.45;2.88;;;16.30;73.70;;;;;;4961512;28;20047;-77
2023/04/24 15:29:22;;;;;;;20.10;3.17;;;16.40;73.90;;;;;;4960908;28;20379;-76
2023/04/24 15:31:48;;;;;;;19.83;4.07;;;16.40;74.10;;;;;;4978628;28;20082;-77
2023/04/24 15:34:14;;;;;;;15.68;4.05;;;16.40;74.20;;;;;;4977657;28;20055;-77
2023/04/24 15:36:40;;;;;;;21.92;3.60;;;16.40;74.30;;;;;;4978617;28;20489;-77
2023/04/24 15:39:05;;;;;;;27.02;4.78;;;16.40;74.50;;;;;;4961355;28;20473;-77
2023/04/24 15:41:31;;;;;;;24.58;4.82;;;16.50;74.80;;;;;;4971803;28;20486;-77
2023/04/24 15:43:57;;;;;;;27.30;4.85;;;16.50;75.10;;;;;;4977152;28;21800;-74
2023/04/24 15:46:23;;;;;;;32.88;5.45;;;16.50;75.20;;;;;;4978035;28;20137;-74
2023/04/24 15:48:49;;;;;;;25.60;5.10;;;16.50;75.30;;;;;;4978299;28;20126;-74
2023/04/24 15:51:16;;;;;;;33.67;6.32;;;16.50;75.70;;;;;;4977296;28;20050;-74
2023/04/24 15:53:42;;;;;;;37.33;5.82;;;16.50;75.70;;;;;;4977818;28;20062;-78
2023/04/24 15:56:08;;;;;;;32.30;4.55;;;16.50;75.50;;;;;;4960524;28;20405;-77
2023/04/24 15:58:34;;;;;;;23.00;4.07;;;16.50;75.30;;;;;;4960313;28;20090;-78
2023/04/24 16:01:00;;;;;;;30.88;4.78;;;16.50;75.00;;;;;;4977373;28;20050;-78
2023/04/24 16:03:25;;;;;;;31.35;3.75;;;16.40;74.40;;;;;;4977514;28;20053;-77
2023/04/24 16:05:52;;;;;;;24.13;4.10;;;16.50;73.90;;;;;;4977651;28;20058;-80
2023/04/24 16:08:18;;;;;;;31.83;4.43;;;16.50;73.90;;;;;;4945383;28;20476;-76
2023/04/24 16:10:45;;;;;;;29.55;5.05;;;16.50;74.00;;;;;;4977278;28;20043;-77
2023/04/24 16:13:12;;;;;;;26.55;3.97;;;16.50;74.10;;;;;;4977408;28;20405;-77
2023/04/24 16:15:38;;;;;;;23.60;3.88;;;16.40;74.40;;;;;;4977045;28;20050;-77
2023/04/24 16:18:04;;;;;;;38.78;4.68;;;16.40;74.50;;;;;;4977593;28;20378;-79
2023/04/24 16:20:30;;;;;;;57.28;6.95;;;16.40;74.50;;;;;;4944708;28;20050;-78
2023/04/24 16:22:56;;;;;;;44.70;5.65;;;16.40;74.70;;;;;;4959836;28;20053;-78
2023/04/24 16:25:21;;;;;;;44.28;5.85;;;16.40;74.70;;;;;;4977090;28;20069;-75
2023/04/24 16:27:50;;;;;;;54.88;7.32;;;16.40;74.80;;;;;;4971613;28;20043;-80
2023/04/24 16:30:16;;;;;;;42.97;7.45;;;16.40;74.80;;;;;;4941796;28;20051;-77
2023/04/24 16:32:41;;;;;;;25.50;4.38;;;16.40;74.70;;;;;;4975559;28;20054;-78
2023/04/24 16:35:07;;;;;;;20.00;3.70;;;16.50;74.60;;;;;;4958934;28;20062;-79
2023/04/24 16:37:34;;;;;;;43.85;5.30;;;16.50;74.00;;;;;;4960032;28;20422;-77
2023/04/24 16:40:00;;;;;;;34.53;4.72;;;16.40;72.60;;;;;;4943546;28;20379;-78
2023/04/24 16:42:26;;;;;;;41.03;5.70;;;16.40;71.80;;;;;;4976415;28;20039;-78
2023/04/24 16:44:51;;;;;;;36.83;5.43;;;16.40;71.90;;;;;;4976922;28;20038;-78
2023/04/24 16:47:18;;;;;;;26.45;4.35;;;16.40;71.90;;;;;;4959416;28;20061;-71
2023/04/24 16:49:44;;;;;;;38.55;5.40;;;16.40;72.00;;;;;;4962889;28;20101;-75
2023/04/24 16:52:10;;;;;;;31.85;4.82;;;16.40;72.00;;;;;;4976254;28;20050;-75
2023/04/24 16:54:36;;;;;;;26.23;4.60;;;16.40;72.10;;;;;;4976278;28;20082;-76
2023/04/24 16:57:03;;;;;;;28.13;4.38;;;16.40;72.00;;;;;;4976582;28;20101;-76
2023/04/24 16:59:33;;;;;;;29.08;3.85;;;16.40;72.20;;;;;;4976301;28;20039;-75
2023/04/24 17:02:02;;;;;;;28.50;4.47;;;16.40;72.10;;;;;;4976580;28;20043;-76
2023/04/24 17:04:28;;;;;;;29.73;3.92;;;16.40;72.00;;;;;;4976077;28;20078;-75
2023/04/24 17:06:54;;;;;;;22.92;3.05;;;16.40;71.80;;;;;;4976497;28;20051;-75
2023/04/24 17:09:20;;;;;;;20.52;2.80;;;16.30;71.70;;;;;;4976535;28;20046;-75